Moby Baby — ICEM — position and weather

sailwx.info

Track history (hours):
 
Tides and Currents Weather Stations Pressure Air Temp Water Temp Dewpoint Dewpoint Depression Visibility Wind Speed Wind Dir Waves Ship Positions

Moby Baby

Last reported at 2015-May-28 20:05 UTC. Time now 2015-May-29 04:13 UTC.
Position N 42°49' E 010°19'.

Length 99 m; draft 4.5 m.

Type: Ship. MMSI: 247049900.

Date/timePositionNaut miles runAvg speedWind from/ knotsBaromVisibWave heightAir tempDewpointWater temp
2015-May-28 20:05N 42°49' E 010°19'0 0.0
2015-May-28 19:32N 42°49' E 010°19'0 0.0
2015-May-28 16:05N 42°49' E 010°20'610.9
2015-May-28 15:33N 42°53' E 010°25'7 6.5
2015-May-28 14:29N 42°56' E 010°33'1313.5
2015-May-28 13:33N 42°49' E 010°19'6 6.4
2015-May-28 12:33N 42°53' E 010°26'6 2.0
2015-May-28 09:31N 42°56' E 010°33'12 4.8
2015-May-28 07:04N 42°49' E 010°20'815.1
2015-May-28 06:33N 42°54' E 010°28'5 4.0
2015-May-28 05:26N 42°56' E 010°33'13 1.8
2015-May-27 22:31N 42°49' E 010°19'0 0.0
2015-May-27 19:27N 42°49' E 010°19'5 2.3
2015-May-27 17:25N 42°52' E 010°24'1 0.6
2015-May-27 15:34N 42°53' E 010°25'7 6.8
2015-May-27 14:29N 42°56' E 010°34'2 0.2
2015-May-27 06:21N 42°55' E 010°32'2 1.9
2015-May-27 05:26N 42°56' E 010°33'13 1.8
2015-May-26 22:30N 42°49' E 010°19'0 0.0
2015-May-26 21:33N 42°49' E 010°19'0 0.0
2015-May-26 20:33N 42°49' E 010°19'0 0.0
2015-May-26 19:33N 42°49' E 010°19'1312.9
2015-May-26 18:34N 42°56' E 010°34'7 6.5
2015-May-26 17:32N 42°53' E 010°26'6 6.3
2015-May-26 16:33N 42°49' E 010°19'6 5.7
2015-May-26 15:32N 42°53' E 010°25'7 6.7
2015-May-26 14:28N 42°56' E 010°34'2 0.4
2015-May-26 09:18N 42°54' E 010°32'0 0.1
2015-May-26 05:19N 42°54' E 010°32'11 1.1
2015-May-25 19:26N 42°49' E 010°20'1314.1
2015-May-25 18:33N 42°56' E 010°33'7 6.9
2015-May-25 17:32N 42°53' E 010°25'6 2.7
2015-May-25 15:10N 42°55' E 010°33'1 1.6
2015-May-25 14:30N 42°56' E 010°34'1312.3
2015-May-25 13:28N 42°49' E 010°19'7 7.5
2015-May-25 12:33N 42°53' E 010°26'6 2.0
2015-May-25 09:32N 42°56' E 010°33'1310.6
2015-May-25 08:20N 42°49' E 010°19'0 0.0
2015-May-25 07:14N 42°49' E 010°19'912.6
2015-May-25 06:34N 42°54' E 010°29'4 3.7
2015-May-25 05:32N 42°56' E 010°33'1212.5
2015-May-25 04:33N 42°49' E 010°19'0 0.1
2015-May-25 02:22N 42°49' E 010°19'0 0.0
2015-May-24 23:29N 42°49' E 010°19'0 0.0
2015-May-24 22:23N 42°49' E 010°19'0 0.0
2015-May-24 21:29N 42°49' E 010°19'0 0.0
2015-May-24 20:33N 42°49' E 010°19'0 0.1
2015-May-24 19:27N 42°49' E 010°19'1314.3
2015-May-24 18:34N 42°56' E 010°34'7 7.0
2015-May-24 17:34N 42°53' E 010°25'6 4.9
2015-May-24 16:22N 42°49' E 010°19'6 7.0
2015-May-24 15:34N 42°53' E 010°24'2 0.6
2015-May-24 12:29N 42°54' E 010°27'6 1.9
2015-May-24 09:29N 42°56' E 010°33'0 0.2
2015-May-24 06:19N 42°56' E 010°34'1 0.0
2015-May-23 06:21N 42°55' E 010°33'1 1.1
2015-May-23 05:26N 42°56' E 010°33'2 0.1
2015-May-22 12:13N 42°54' E 010°32'  
2015-May-19 21:33N 42°49' E 010°19'0 0.0
2015-May-19 20:32N 42°49' E 010°19'2 1.8
2015-May-19 19:17N 42°50' E 010°22'4 2.2
2015-May-19 17:33N 42°53' E 010°25'5 3.8
2015-May-19 16:07N 42°49' E 010°20'814.9
2015-May-19 15:33N 42°54' E 010°29'4 3.6
2015-May-19 14:31N 42°56' E 010°34'7 1.4
2015-May-19 09:04N 42°53' E 010°24'5 2.8
2015-May-19 07:11N 42°49' E 010°20'1114.6
2015-May-19 06:27N 42°54' E 010°32'2 1.9
2015-May-19 05:32N 42°56' E 010°33'12 5.8
2015-May-19 03:23N 42°49' E 010°19'0 0.0
2015-May-19 02:32N 42°49' E 010°19'0 0.0
2015-May-19 01:29N 42°49' E 010°19'0 0.0
2015-May-19 00:34N 42°49' E 010°19'0 0.0
2015-May-18 23:33N 42°49' E 010°19'0 0.0
2015-May-18 22:32N 42°49' E 010°19'0 0.0
2015-May-18 20:34N 42°49' E 010°19'  
Track history (hours):
 
Tides and Currents Weather Stations Pressure Air Temp Water Temp Dewpoint Dewpoint Depression Visibility Wind Speed Wind Dir Waves Ship Positions

Moby Baby

Last reported at 2015-May-28 20:05 UTC. Time now 2015-May-29 04:13 UTC.
Position N 42°49' E 010°19'.

Length 99 m; draft 4.5 m.

Type: Ship. MMSI: 247049900.

Date/timePositionNaut miles runAvg speedWind from/ knotsBaromVisibWave heightAir tempDewpointWater temp
2015-May-28 20:05N 42°49' E 010°19'0 0.0
2015-May-28 19:32N 42°49' E 010°19'0 0.0
2015-May-28 16:05N 42°49' E 010°20'610.9
2015-May-28 15:33N 42°53' E 010°25'7 6.5
2015-May-28 14:29N 42°56' E 010°33'1313.5
2015-May-28 13:33N 42°49' E 010°19'6 6.4
2015-May-28 12:33N 42°53' E 010°26'6 2.0
2015-May-28 09:31N 42°56' E 010°33'12 4.8
2015-May-28 07:04N 42°49' E 010°20'815.1
2015-May-28 06:33N 42°54' E 010°28'5 4.0
2015-May-28 05:26N 42°56' E 010°33'13 1.8
2015-May-27 22:31N 42°49' E 010°19'0 0.0
2015-May-27 19:27N 42°49' E 010°19'5 2.3
2015-May-27 17:25N 42°52' E 010°24'1 0.6
2015-May-27 15:34N 42°53' E 010°25'7 6.8
2015-May-27 14:29N 42°56' E 010°34'2 0.2
2015-May-27 06:21N 42°55' E 010°32'2 1.9
2015-May-27 05:26N 42°56' E 010°33'13 1.8
2015-May-26 22:30N 42°49' E 010°19'0 0.0
2015-May-26 21:33N 42°49' E 010°19'0 0.0
2015-May-26 20:33N 42°49' E 010°19'0 0.0
2015-May-26 19:33N 42°49' E 010°19'1312.9
2015-May-26 18:34N 42°56' E 010°34'7 6.5
2015-May-26 17:32N 42°53' E 010°26'6 6.3
2015-May-26 16:33N 42°49' E 010°19'6 5.7
2015-May-26 15:32N 42°53' E 010°25'7 6.7
2015-May-26 14:28N 42°56' E 010°34'2 0.4
2015-May-26 09:18N 42°54' E 010°32'0 0.1
2015-May-26 05:19N 42°54' E 010°32'11 1.1
2015-May-25 19:26N 42°49' E 010°20'1314.1
2015-May-25 18:33N 42°56' E 010°33'7 6.9
2015-May-25 17:32N 42°53' E 010°25'6 2.7
2015-May-25 15:10N 42°55' E 010°33'1 1.6
2015-May-25 14:30N 42°56' E 010°34'1312.3
2015-May-25 13:28N 42°49' E 010°19'7 7.5
2015-May-25 12:33N 42°53' E 010°26'6 2.0
2015-May-25 09:32N 42°56' E 010°33'1310.6
2015-May-25 08:20N 42°49' E 010°19'0 0.0
2015-May-25 07:14N 42°49' E 010°19'912.6
2015-May-25 06:34N 42°54' E 010°29'4 3.7
2015-May-25 05:32N 42°56' E 010°33'1212.5
2015-May-25 04:33N 42°49' E 010°19'0 0.1
2015-May-25 02:22N 42°49' E 010°19'0 0.0
2015-May-24 23:29N 42°49' E 010°19'0 0.0
2015-May-24 22:23N 42°49' E 010°19'0 0.0
2015-May-24 21:29N 42°49' E 010°19'0 0.0
2015-May-24 20:33N 42°49' E 010°19'0 0.1
2015-May-24 19:27N 42°49' E 010°19'1314.3
2015-May-24 18:34N 42°56' E 010°34'7 7.0
2015-May-24 17:34N 42°53' E 010°25'6 4.9
2015-May-24 16:22N 42°49' E 010°19'6 7.0
2015-May-24 15:34N 42°53' E 010°24'2 0.6
2015-May-24 12:29N 42°54' E 010°27'6 1.9
2015-May-24 09:29N 42°56' E 010°33'0 0.2
2015-May-24 06:19N 42°56' E 010°34'1 0.0
2015-May-23 06:21N 42°55' E 010°33'1 1.1
2015-May-23 05:26N 42°56' E 010°33'2 0.1
2015-May-22 12:13N 42°54' E 010°32'  
2015-May-19 21:33N 42°49' E 010°19'0 0.0
2015-May-19 20:32N 42°49' E 010°19'2 1.8
2015-May-19 19:17N 42°50' E 010°22'4 2.2
2015-May-19 17:33N 42°53' E 010°25'5 3.8
2015-May-19 16:07N 42°49' E 010°20'814.9
2015-May-19 15:33N 42°54' E 010°29'4 3.6
2015-May-19 14:31N 42°56' E 010°34'7 1.4
2015-May-19 09:04N 42°53' E 010°24'5 2.8
2015-May-19 07:11N 42°49' E 010°20'1114.6
2015-May-19 06:27N 42°54' E 010°32'2 1.9
2015-May-19 05:32N 42°56' E 010°33'12 5.8
2015-May-19 03:23N 42°49' E 010°19'0 0.0
2015-May-19 02:32N 42°49' E 010°19'0 0.0
2015-May-19 01:29N 42°49' E 010°19'0 0.0
2015-May-19 00:34N 42°49' E 010°19'0 0.0
2015-May-18 23:33N 42°49' E 010°19'0 0.0
2015-May-18 22:32N 42°49' E 010°19'0 0.0
2015-May-18 20:34N 42°49' E 010°19'  

Dump ship's entire track history